createdAt,value
2022-10-14T00:01:33.009Z,50.83
2022-10-14T00:04:00.351Z,42.47
2022-10-14T00:06:30.493Z,43.15
2022-10-14T00:09:00.407Z,51.72
2022-10-14T00:11:31.395Z,50.20
2022-10-14T00:14:02.201Z,43.13
2022-10-14T00:16:33.729Z,49.97
2022-10-14T00:19:01.440Z,47.72
2022-10-14T00:21:28.998Z,46.55
2022-10-14T00:23:56.886Z,54.83
2022-10-14T00:26:26.119Z,47.00
2022-10-14T00:28:53.446Z,53.75
2022-10-14T00:31:20.865Z,50.55
2022-10-14T00:33:48.225Z,48.88
2022-10-14T00:36:17.180Z,52.42
2022-10-14T00:38:45.479Z,44.15
2022-10-14T00:41:16.972Z,46.35
2022-10-14T00:44:07.894Z,52.40
2022-10-14T00:46:36.928Z,45.83
2022-10-14T00:49:15.863Z,47.72
2022-10-14T00:51:47.899Z,36.67
2022-10-14T00:54:17.946Z,42.55
2022-10-14T00:56:49.320Z,45.22
2022-10-14T00:59:16.555Z,47.88
2022-10-14T01:01:43.248Z,46.40
2022-10-14T01:04:09.834Z,51.88
2022-10-14T01:06:44.217Z,40.80
2022-10-14T01:09:26.023Z,54.63
2022-10-14T01:12:28.044Z,42.83
2022-10-14T01:15:11.520Z,41.42
2022-10-14T01:18:00.226Z,42.85
2022-10-14T01:20:58.393Z,47.75
2022-10-14T01:23:38.311Z,54.55
2022-10-14T01:26:23.366Z,74.30
2022-10-14T01:29:28.060Z,65.80
2022-10-14T01:32:03.993Z,52.00
2022-10-14T01:34:37.830Z,52.97
2022-10-14T01:37:12.582Z,50.28
2022-10-14T01:39:44.779Z,49.63
2022-10-14T01:42:16.340Z,51.35
2022-10-14T01:44:47.495Z,44.85
2022-10-14T01:47:18.516Z,57.72
2022-10-14T01:49:52.980Z,48.85
2022-10-14T01:52:27.476Z,45.58
2022-10-14T01:54:59.850Z,50.08
2022-10-14T01:57:29.980Z,46.80
2022-10-14T01:59:58.426Z,54.15
2022-10-14T02:02:25.657Z,56.15
2022-10-14T02:04:52.628Z,52.58
2022-10-14T02:07:33.195Z,46.63
2022-10-14T02:10:14.600Z,53.08
2022-10-14T02:12:57.656Z,60.53
2022-10-14T02:15:34.548Z,53.85
2022-10-14T02:18:17.807Z,50.95
2022-10-14T02:20:54.636Z,46.35
2022-10-14T02:23:26.468Z,44.83
2022-10-14T02:25:54.938Z,60.83
2022-10-14T02:28:25.524Z,52.50
2022-10-14T02:30:57.828Z,62.40
2022-10-14T02:33:31.088Z,48.80
2022-10-14T02:35:58.021Z,45.30
2022-10-14T02:38:25.895Z,58.10
2022-10-14T02:40:53.015Z,59.75
2022-10-14T02:43:19.976Z,63.30
2022-10-14T02:45:46.605Z,65.35
2022-10-14T02:48:13.527Z,56.97
2022-10-14T02:50:41.485Z,59.15
2022-10-14T02:53:08.330Z,57.13
2022-10-14T02:55:35.180Z,56.45
2022-10-14T02:58:01.863Z,63.17
2022-10-14T03:00:28.582Z,60.25
2022-10-14T03:02:55.239Z,67.63
2022-10-14T03:05:21.847Z,63.53
2022-10-14T03:07:48.484Z,62.38
2022-10-14T03:10:15.459Z,58.00
2022-10-14T03:12:42.041Z,56.75
2022-10-14T03:15:09.455Z,53.15
2022-10-14T03:17:36.499Z,66.47
2022-10-14T03:20:05.392Z,66.45
2022-10-14T03:22:32.213Z,67.32
2022-10-14T03:24:59.094Z,69.55
2022-10-14T03:27:25.926Z,73.70
2022-10-14T03:29:52.554Z,57.75
2022-10-14T03:32:19.523Z,46.50
2022-10-14T03:34:46.356Z,50.53
2022-10-14T03:37:12.981Z,47.58
2022-10-14T03:39:39.664Z,43.13
2022-10-14T03:42:06.384Z,44.25
2022-10-14T03:44:33.035Z,48.97
2022-10-14T03:46:59.680Z,49.35
2022-10-14T03:49:26.378Z,47.38
2022-10-14T03:51:53.041Z,46.83
2022-10-14T03:54:19.655Z,65.97
2022-10-14T03:56:46.319Z,60.00
2022-10-14T03:59:12.925Z,68.15
2022-10-14T04:01:39.590Z,66.15
2022-10-14T04:04:06.411Z,75.22
2022-10-14T04:06:33.047Z,77.53
2022-10-14T04:08:59.708Z,68.20
2022-10-14T04:11:26.405Z,69.55
2022-10-14T04:13:53.027Z,75.20
2022-10-14T04:16:20.359Z,75.57
2022-10-14T04:18:47.029Z,69.80
2022-10-14T04:21:13.736Z,65.28
2022-10-14T04:23:40.348Z,72.35
2022-10-14T04:26:08.534Z,67.07
2022-10-14T04:28:35.608Z,67.85
2022-10-14T04:31:02.512Z,65.63
2022-10-14T04:33:29.222Z,67.03
2022-10-14T04:36:00.396Z,68.32
2022-10-14T04:38:27.580Z,69.30
2022-10-14T04:40:55.098Z,70.82
2022-10-14T04:43:22.030Z,65.43
2022-10-14T04:45:49.485Z,67.60
2022-10-14T04:48:17.259Z,68.75
2022-10-14T04:50:44.192Z,61.38
2022-10-14T04:53:13.767Z,71.85
2022-10-14T04:55:41.096Z,81.32
2022-10-14T04:58:11.164Z,97.47
2022-10-14T05:00:37.823Z,73.32
2022-10-14T05:03:05.070Z,69.28
2022-10-14T05:05:31.735Z,77.25
2022-10-14T05:07:58.444Z,70.82
2022-10-14T05:10:25.131Z,70.03
2022-10-14T05:12:55.034Z,73.28
2022-10-14T05:15:21.987Z,65.78
2022-10-14T05:17:48.597Z,68.57
2022-10-14T05:20:15.247Z,62.17
2022-10-14T05:22:45.250Z,55.60
2022-10-14T05:25:12.097Z,62.70
2022-10-14T05:27:38.976Z,69.03
2022-10-14T05:30:06.113Z,74.05
2022-10-14T05:32:33.411Z,62.45
2022-10-14T05:35:00.014Z,65.90
2022-10-14T05:37:26.898Z,55.95
2022-10-14T05:39:55.171Z,53.17
2022-10-14T05:42:22.414Z,47.42
2022-10-14T05:44:49.304Z,55.03
2022-10-14T05:47:15.954Z,52.15
2022-10-14T05:49:42.858Z,61.88
2022-10-14T05:52:09.516Z,58.22
2022-10-14T05:54:36.103Z,57.85
2022-10-14T05:57:02.829Z,57.40
2022-10-14T05:59:29.952Z,53.72
2022-10-14T06:01:57.106Z,55.40
2022-10-14T06:04:23.755Z,52.05
2022-10-14T06:06:50.452Z,55.78
2022-10-14T06:09:17.664Z,52.25
2022-10-14T06:11:44.559Z,61.63
2022-10-14T06:14:11.263Z,51.92
2022-10-14T06:16:37.955Z,49.65
2022-10-14T06:19:04.670Z,49.47
2022-10-14T06:21:31.294Z,55.53
2022-10-14T06:23:57.895Z,50.20
2022-10-14T06:26:24.512Z,55.85
2022-10-14T06:28:51.175Z,51.17
2022-10-14T06:31:17.884Z,52.28
2022-10-14T06:33:45.128Z,50.40
2022-10-14T06:36:12.162Z,54.40
2022-10-14T06:38:38.898Z,52.50
2022-10-14T06:41:05.708Z,52.97
2022-10-14T06:43:32.868Z,55.92
2022-10-14T06:45:59.661Z,66.93
2022-10-14T06:48:26.634Z,60.70
2022-10-14T06:50:53.763Z,55.65
2022-10-14T06:53:21.127Z,58.63
2022-10-14T06:55:47.773Z,61.45
2022-10-14T06:58:14.490Z,55.85
2022-10-14T07:00:44.391Z,66.43
2022-10-14T07:03:15.463Z,61.42
2022-10-14T07:05:42.044Z,61.10
2022-10-14T07:08:11.366Z,65.30
2022-10-14T07:10:41.110Z,56.65
2022-10-14T07:13:07.737Z,59.92
2022-10-14T07:15:36.349Z,58.50
2022-10-14T07:18:04.530Z,54.13
2022-10-14T07:20:31.145Z,52.75
2022-10-14T07:22:57.782Z,52.65
2022-10-14T07:25:24.567Z,56.05
2022-10-14T07:27:53.275Z,56.83
2022-10-14T07:30:20.260Z,56.67
2022-10-14T07:32:47.020Z,55.72
2022-10-14T07:35:13.736Z,55.72
2022-10-14T07:37:40.655Z,60.28
2022-10-14T07:40:08.291Z,63.33
2022-10-14T07:42:34.884Z,51.90
2022-10-14T07:45:01.802Z,58.20
2022-10-14T07:47:28.473Z,51.50
2022-10-14T07:49:55.106Z,53.53
2022-10-14T07:52:21.733Z,52.85
2022-10-14T07:54:49.503Z,63.08
2022-10-14T07:57:16.785Z,58.67
2022-10-14T07:59:43.435Z,61.53
2022-10-14T08:02:11.679Z,60.65
2022-10-14T08:04:38.564Z,63.90
2022-10-14T08:07:05.406Z,64.50
2022-10-14T08:09:35.972Z,62.45
2022-10-14T08:12:02.746Z,58.47
2022-10-14T08:14:29.478Z,61.00
2022-10-14T08:16:56.110Z,56.17
2022-10-14T08:19:23.122Z,68.30
2022-10-14T08:21:49.832Z,68.18
2022-10-14T08:24:16.449Z,79.68
2022-10-14T08:26:52.753Z,76.88
2022-10-14T08:31:46.469Z,78.07
2022-10-14T08:34:13.143Z,70.53
2022-10-14T08:36:39.888Z,69.55
2022-10-14T08:39:07.363Z,60.47
2022-10-14T08:41:49.317Z,70.22
2022-10-14T08:44:23.039Z,62.30
2022-10-14T08:47:00.522Z,62.35
2022-10-14T08:49:29.163Z,67.70
2022-10-14T08:52:03.317Z,66.70
2022-10-14T08:54:35.185Z,64.00
2022-10-14T08:57:04.474Z,49.97
2022-10-14T08:59:40.392Z,54.70
2022-10-14T09:02:34.005Z,47.95
2022-10-14T09:05:02.197Z,45.03
2022-10-14T09:07:31.801Z,49.50
2022-10-14T09:10:03.658Z,43.20
2022-10-14T09:12:33.252Z,47.17
2022-10-14T09:15:19.759Z,42.13
2022-10-14T09:17:57.197Z,47.08
2022-10-14T09:20:25.635Z,52.50
2022-10-14T09:23:05.299Z,44.03
2022-10-14T09:25:35.051Z,42.75
2022-10-14T09:28:02.220Z,39.30
2022-10-14T09:30:35.647Z,50.03
2022-10-14T09:33:04.723Z,38.83
2022-10-14T09:35:35.377Z,41.25
2022-10-14T09:38:02.089Z,33.65
2022-10-14T09:40:35.185Z,35.72
2022-10-14T09:43:18.785Z,33.33
2022-10-14T09:46:07.951Z,32.15
2022-10-14T09:48:44.603Z,33.58
2022-10-14T09:51:19.647Z,33.15
2022-10-14T09:53:51.969Z,35.97
2022-10-14T09:56:29.436Z,34.60
2022-10-14T09:58:58.212Z,39.90
2022-10-14T10:01:27.646Z,41.15
2022-10-14T10:03:55.746Z,34.80
2022-10-14T10:06:26.502Z,36.08
2022-10-14T10:08:53.024Z,31.83
2022-10-14T10:11:33.538Z,33.05
2022-10-14T10:14:19.001Z,29.63
2022-10-14T10:16:45.723Z,28.23
2022-10-14T10:19:28.866Z,26.92
2022-10-14T10:22:14.879Z,29.10
2022-10-14T10:24:41.583Z,30.08
2022-10-14T10:27:25.838Z,21.50
2022-10-14T10:29:55.838Z,27.52
2022-10-14T10:32:30.247Z,21.02
2022-10-14T10:35:12.454Z,24.17
2022-10-14T10:38:02.325Z,26.58
2022-10-14T10:40:39.157Z,23.88
2022-10-14T10:43:06.877Z,31.08
2022-10-14T10:45:53.492Z,27.33
2022-10-14T10:51:05.484Z,21.02
2022-10-14T10:53:49.753Z,22.20
2022-10-14T10:56:38.757Z,19.33
2022-10-14T10:59:39.197Z,17.02
2022-10-14T11:02:41.039Z,20.02
2022-10-14T11:05:23.480Z,18.40
2022-10-14T11:08:14.705Z,17.77
2022-10-14T11:11:36.441Z,20.40
2022-10-14T11:14:16.008Z,16.25
2022-10-14T11:17:03.246Z,12.93
2022-10-14T11:19:40.897Z,19.40
2022-10-14T11:22:34.554Z,10.68
2022-10-14T11:25:07.951Z,12.57
2022-10-14T11:27:43.696Z,9.30
2022-10-14T11:30:16.176Z,11.52
2022-10-14T11:32:42.818Z,13.32
2022-10-14T11:35:19.399Z,10.80
2022-10-14T11:38:21.699Z,12.20
2022-10-14T11:41:03.631Z,11.05
2022-10-14T11:43:39.480Z,16.33
2022-10-14T11:46:08.965Z,10.90
2022-10-14T11:48:59.053Z,11.07
2022-10-14T11:51:36.292Z,16.33
2022-10-14T11:54:05.754Z,11.35
2022-10-14T11:56:43.519Z,10.55
2022-10-14T11:59:49.697Z,11.43
2022-10-14T12:02:21.895Z,14.00
2022-10-14T12:04:57.654Z,11.90
2022-10-14T12:07:31.762Z,16.80
2022-10-14T12:10:03.103Z,12.10
2022-10-14T12:12:32.388Z,14.48
2022-10-14T12:15:04.356Z,10.25
2022-10-14T12:17:46.320Z,13.20
2022-10-14T12:20:22.326Z,11.23
2022-10-14T12:22:50.407Z,14.40
2022-10-14T12:25:20.428Z,10.13
2022-10-14T12:27:48.365Z,9.65
2022-10-14T12:30:47.374Z,12.80
2022-10-14T12:33:22.406Z,14.05
2022-10-14T12:36:00.893Z,7.75
2022-10-14T12:38:29.566Z,9.98
2022-10-14T12:41:32.246Z,8.27
2022-10-14T12:44:01.842Z,7.63
2022-10-14T12:46:28.477Z,8.30
2022-10-14T12:48:55.129Z,8.82
2022-10-14T12:51:24.367Z,8.27
2022-10-14T12:54:12.366Z,8.15
2022-10-14T12:56:44.687Z,11.43
2022-10-14T12:59:25.503Z,9.77
2022-10-14T13:02:00.390Z,10.77
2022-10-14T13:04:28.648Z,9.10
2022-10-14T13:07:46.584Z,9.13
2022-10-14T13:10:49.780Z,12.23
2022-10-14T13:13:49.402Z,11.50
2022-10-14T13:16:19.176Z,7.03
2022-10-14T13:18:45.763Z,8.00
2022-10-14T13:21:52.764Z,6.97
2022-10-14T13:24:30.454Z,10.95
2022-10-14T13:27:01.117Z,11.43
2022-10-14T13:30:02.643Z,9.50
2022-10-14T13:32:44.424Z,7.70
2022-10-14T13:35:34.739Z,11.65
2022-10-14T13:38:07.310Z,7.97
2022-10-14T13:40:38.668Z,6.45
2022-10-14T13:43:13.715Z,8.43
2022-10-14T13:45:50.723Z,7.57
2022-10-14T13:48:30.736Z,9.02
2022-10-14T13:51:37.101Z,6.35
2022-10-14T13:54:22.194Z,13.57
2022-10-14T13:57:42.552Z,7.80
2022-10-14T14:05:19.222Z,8.27
2022-10-14T14:10:39.197Z,6.38
2022-10-14T14:13:14.059Z,4.93
2022-10-14T14:15:40.963Z,8.18
2022-10-14T14:18:30.443Z,6.18
2022-10-14T14:21:04.974Z,4.72
2022-10-14T14:23:31.605Z,6.88
2022-10-14T14:26:18.473Z,4.82
2022-10-14T14:28:48.281Z,10.50
2022-10-14T14:31:19.165Z,14.68
2022-10-14T14:33:46.719Z,8.55
2022-10-14T14:36:27.550Z,7.57
2022-10-14T14:38:57.896Z,10.30
2022-10-14T14:41:26.917Z,9.98
2022-10-14T14:44:23.947Z,6.32
2022-10-14T14:46:45.507Z,10.45
2022-10-14T14:49:17.030Z,15.45
2022-10-14T14:51:44.487Z,13.98
2022-10-14T14:54:22.493Z,23.70
2022-10-14T14:57:04.690Z,27.15
2022-10-14T14:59:35.548Z,19.20
2022-10-14T15:02:04.977Z,18.40
2022-10-14T15:04:34.941Z,23.63
2022-10-14T15:07:18.700Z,31.13
2022-10-14T15:09:52.235Z,32.03
2022-10-14T15:12:22.121Z,37.90
2022-10-14T15:14:51.177Z,35.40
2022-10-14T15:17:34.234Z,33.38
2022-10-14T15:20:28.986Z,38.70
2022-10-14T15:22:55.699Z,35.13
2022-10-14T15:25:23.371Z,31.98
2022-10-14T15:27:55.016Z,37.00
2022-10-14T15:30:31.993Z,30.23
2022-10-14T15:33:15.466Z,33.20
2022-10-14T15:35:43.561Z,30.05
2022-10-14T15:38:16.645Z,31.20
2022-10-14T15:40:44.759Z,31.10
2022-10-14T15:43:17.620Z,36.08
2022-10-14T15:45:46.346Z,37.05
2022-10-14T15:48:19.976Z,26.85
2022-10-14T15:50:48.111Z,28.02
2022-10-14T15:53:17.273Z,30.25
2022-10-14T15:55:44.169Z,38.63
2022-10-14T15:58:10.774Z,26.30
2022-10-14T16:00:37.475Z,35.03
2022-10-14T16:03:04.251Z,29.33
2022-10-14T16:05:30.977Z,28.63
2022-10-14T16:07:57.799Z,27.67
2022-10-14T16:10:26.455Z,31.77
2022-10-14T16:12:54.692Z,32.72
2022-10-14T16:15:51.874Z,26.58
2022-10-14T16:20:46.360Z,31.15
2022-10-14T16:23:18.584Z,31.40
2022-10-14T16:25:46.868Z,28.25
2022-10-14T16:28:13.954Z,32.22
2022-10-14T16:30:44.085Z,26.45
2022-10-14T16:35:38.407Z,27.60
2022-10-14T16:38:04.989Z,23.52
2022-10-14T16:40:36.567Z,22.52
2022-10-14T16:43:04.276Z,25.63
2022-10-14T16:45:30.958Z,28.23
2022-10-14T16:47:57.571Z,27.90
2022-10-14T16:50:24.430Z,22.55
2022-10-14T16:53:06.338Z,28.80
2022-10-14T16:55:33.387Z,22.65
2022-10-14T16:58:00.013Z,28.70
2022-10-14T17:00:26.614Z,28.98
2022-10-14T17:02:56.386Z,32.17
2022-10-14T17:05:23.006Z,21.55
2022-10-14T17:07:49.650Z,25.63
2022-10-14T17:10:16.810Z,22.95
2022-10-14T17:12:43.462Z,36.08
2022-10-14T17:15:10.518Z,25.83
2022-10-14T17:17:40.456Z,25.35
2022-10-14T17:20:09.376Z,24.52
2022-10-14T17:22:36.125Z,27.08
2022-10-14T17:25:02.853Z,25.95
2022-10-14T17:27:29.426Z,31.98
2022-10-14T17:29:56.083Z,24.88
2022-10-14T17:32:22.840Z,24.67
2022-10-14T17:34:53.317Z,29.33
2022-10-14T17:37:20.688Z,28.45
2022-10-14T17:39:47.292Z,30.33
2022-10-14T17:42:13.911Z,20.70
2022-10-14T17:44:43.807Z,24.33
2022-10-14T17:47:10.971Z,27.15
2022-10-14T17:49:37.582Z,24.42
2022-10-14T17:52:06.198Z,29.52
2022-10-14T17:54:32.843Z,23.02
2022-10-14T17:56:59.471Z,25.73
2022-10-14T17:59:26.128Z,26.83
2022-10-14T18:02:08.106Z,25.58
2022-10-14T18:04:34.856Z,23.67
2022-10-14T18:07:01.657Z,24.25
2022-10-14T18:09:29.672Z,27.52
2022-10-14T18:12:13.119Z,24.55
2022-10-14T18:14:40.673Z,26.48
2022-10-14T18:17:10.686Z,25.13
2022-10-14T18:19:37.414Z,23.05
2022-10-14T18:22:04.234Z,22.45
2022-10-14T18:24:30.890Z,21.33
2022-10-14T18:26:57.459Z,24.70
2022-10-14T18:29:24.713Z,42.33
2022-10-14T18:34:19.074Z,36.33
2022-10-14T18:36:47.818Z,32.15
2022-10-14T18:39:15.461Z,31.27
2022-10-14T18:41:43.898Z,35.28
2022-10-14T18:44:10.613Z,46.70
2022-10-14T18:46:39.382Z,25.13
2022-10-14T18:49:08.712Z,34.40
2022-10-14T18:51:37.946Z,30.27
2022-10-14T18:54:07.805Z,27.25
2022-10-14T18:56:38.718Z,24.55
2022-10-14T18:59:09.127Z,26.98
2022-10-14T19:01:37.850Z,25.38
2022-10-14T19:04:06.661Z,20.48
2022-10-14T19:06:34.763Z,21.88
2022-10-14T19:09:02.000Z,24.27
2022-10-14T19:11:29.611Z,26.27
2022-10-14T19:13:58.274Z,24.50
2022-10-14T19:16:33.639Z,28.10
2022-10-14T19:19:04.588Z,24.70
2022-10-14T19:21:31.767Z,30.85
2022-10-14T19:23:59.043Z,25.40
2022-10-14T19:26:30.962Z,25.58
2022-10-14T19:29:01.543Z,19.55
2022-10-14T19:31:30.927Z,22.45
2022-10-14T19:33:59.792Z,21.15
2022-10-14T19:36:26.467Z,20.98
2022-10-14T19:38:57.981Z,31.05
2022-10-14T19:41:28.186Z,29.25
2022-10-14T19:43:56.955Z,20.67
2022-10-14T19:46:27.603Z,28.02
2022-10-14T19:48:57.468Z,22.05
2022-10-14T19:51:25.171Z,22.90
2022-10-14T19:53:53.832Z,23.23
2022-10-14T19:56:20.769Z,28.70
2022-10-14T19:58:51.919Z,29.63
2022-10-14T20:01:19.993Z,30.88
2022-10-14T20:03:47.141Z,23.38
2022-10-14T20:06:14.044Z,23.35
2022-10-14T20:08:41.211Z,25.98
2022-10-14T20:11:10.090Z,25.55
2022-10-14T20:13:37.703Z,30.00
2022-10-14T20:16:06.582Z,22.10
2022-10-14T20:18:33.462Z,27.48
2022-10-14T20:21:02.704Z,24.70
2022-10-14T20:23:32.433Z,22.33
2022-10-14T20:26:00.566Z,27.85
2022-10-14T20:28:27.163Z,20.90
2022-10-14T20:30:54.328Z,26.05
2022-10-14T20:33:21.054Z,20.48
2022-10-14T20:35:47.680Z,22.65
2022-10-14T20:38:14.373Z,19.10
2022-10-14T20:40:41.003Z,23.23
2022-10-14T20:43:07.580Z,23.40
2022-10-14T20:45:34.292Z,23.40
2022-10-14T20:48:01.099Z,20.75
2022-10-14T20:50:27.714Z,27.25
2022-10-14T20:52:54.290Z,24.00
2022-10-14T20:55:20.907Z,23.67
2022-10-14T20:57:49.903Z,21.85
2022-10-14T21:00:16.738Z,24.05
2022-10-14T21:05:19.240Z,22.33
2022-10-14T21:07:45.922Z,21.23
2022-10-14T21:10:12.546Z,20.83
2022-10-14T21:12:39.187Z,19.30
2022-10-14T21:15:06.251Z,20.42
2022-10-14T21:17:32.866Z,23.02
2022-10-14T21:20:02.686Z,24.55
2022-10-14T21:22:29.428Z,19.85
2022-10-14T21:24:56.054Z,20.25
2022-10-14T21:29:49.925Z,18.45
2022-10-14T21:32:16.629Z,18.65
2022-10-14T21:34:43.253Z,20.40
2022-10-14T21:37:09.945Z,17.92
2022-10-14T21:39:36.528Z,20.30
2022-10-14T21:42:03.208Z,17.70
2022-10-14T21:44:29.863Z,18.80
2022-10-14T21:46:56.444Z,17.25
2022-10-14T21:49:23.217Z,17.10
2022-10-14T21:51:49.840Z,17.75
2022-10-14T21:54:16.453Z,16.00
2022-10-14T21:56:43.405Z,17.42
2022-10-14T21:59:11.568Z,17.42
2022-10-14T22:01:38.353Z,16.15
2022-10-14T22:04:06.385Z,21.27
2022-10-14T22:06:34.827Z,18.98
2022-10-14T22:09:03.728Z,18.42
2022-10-14T22:11:34.471Z,25.65
2022-10-14T22:14:03.374Z,15.82
2022-10-14T22:16:30.631Z,18.40
2022-10-14T22:19:00.275Z,18.58
2022-10-14T22:21:28.992Z,16.63
2022-10-14T22:23:55.981Z,20.42
2022-10-14T22:26:24.512Z,25.33
2022-10-14T22:29:02.250Z,21.90
2022-10-14T22:31:30.428Z,28.33
2022-10-14T22:33:58.297Z,22.17
2022-10-14T22:36:28.908Z,19.90
2022-10-14T22:38:56.803Z,26.13
2022-10-14T22:41:25.435Z,24.65
2022-10-14T22:43:54.655Z,25.80
2022-10-14T22:46:23.888Z,23.00
2022-10-14T22:48:56.250Z,19.33
2022-10-14T22:51:31.974Z,21.90
2022-10-14T22:53:59.021Z,33.40
2022-10-14T22:56:28.467Z,17.45
2022-10-14T22:58:56.973Z,19.50
2022-10-14T23:01:24.201Z,20.25
2022-10-14T23:03:50.828Z,18.17
2022-10-14T23:06:17.614Z,21.23
2022-10-14T23:08:44.412Z,18.05
2022-10-14T23:11:15.695Z,16.25
2022-10-14T23:13:42.821Z,23.85
2022-10-14T23:16:14.799Z,18.40
2022-10-14T23:21:18.256Z,20.13
2022-10-14T23:23:46.296Z,19.05
2022-10-14T23:26:15.068Z,23.98
2022-10-14T23:28:42.358Z,18.73
2022-10-14T23:31:11.351Z,23.35
2022-10-14T23:33:39.146Z,24.58
2022-10-14T23:36:07.372Z,20.63
2022-10-14T23:38:35.210Z,18.88
2022-10-14T23:41:03.292Z,19.90
2022-10-14T23:43:30.368Z,20.27
2022-10-14T23:45:57.107Z,20.52
2022-10-14T23:48:23.747Z,23.90
2022-10-14T23:50:50.784Z,17.40
2022-10-14T23:53:17.819Z,26.80
2022-10-14T23:55:44.973Z,19.00
2022-10-14T23:58:12.687Z,21.33
